Time;durP1;ratioP1;P1;durP2;ratioP2;P2;SDS_P1;SDS_P2;PMS_P1;PMS_P2;Temp;Humidity;BMP_temperature;BMP_pressure;BME280_temperature;BME280_humidity;BME280_pressure;Samples;Min_cycle;Max_cycle;Signal;HPM_P1;HPM_P2
2022/08/28 00:01:32;;;;;;;25.45;15.32;;;19.90;99.90;;;;;;4998692;28;20138;-54
2022/08/28 00:03:59;;;;;;;23.30;14.57;;;20.00;99.90;;;;;;4994279;28;20026;-54
2022/08/28 00:06:26;;;;;;;24.25;16.48;;;19.90;99.90;;;;;;4997708;28;20034;-53
2022/08/28 00:08:52;;;;;;;24.45;15.50;;;19.90;99.90;;;;;;4998812;28;20038;-53
2022/08/28 00:11:19;;;;;;;22.90;16.98;;;19.90;99.90;;;;;;4994152;28;20499;-53
2022/08/28 00:13:46;;;;;;;23.10;15.95;;;19.90;99.90;;;;;;4998075;28;20371;-53
2022/08/28 00:16:16;;;;;;;22.45;14.90;;;19.90;99.90;;;;;;4998615;28;20026;-54
2022/08/28 00:18:42;;;;;;;25.50;16.88;;;19.80;99.90;;;;;;4998825;28;20026;-53
2022/08/28 00:21:09;;;;;;;22.27;16.08;;;19.80;99.90;;;;;;5001593;28;20030;-53
2022/08/28 00:23:35;;;;;;;23.90;17.40;;;19.80;99.90;;;;;;5002769;28;20048;-53
2022/08/28 00:26:01;;;;;;;26.98;17.13;;;19.80;99.90;;;;;;5001212;28;20127;-53
2022/08/28 00:28:28;;;;;;;28.38;17.52;;;19.80;99.90;;;;;;5001797;28;20070;-53
2022/08/28 00:30:57;;;;;;;25.88;17.08;;;19.70;99.90;;;;;;5002820;28;20462;-53
2022/08/28 00:33:33;;;;;;;22.20;15.93;;;19.80;99.90;;;;;;5001318;28;20509;-53
2022/08/28 00:36:00;;;;;;;22.08;15.75;;;19.70;99.90;;;;;;4980489;28;20428;-53
2022/08/28 00:38:27;;;;;;;22.70;15.60;;;19.70;99.90;;;;;;4984356;28;20022;-53
2022/08/28 00:40:55;;;;;;;23.90;15.88;;;19.70;99.90;;;;;;5003158;28;20044;-53
2022/08/28 00:43:46;;;;;;;24.02;16.98;;;19.60;99.90;;;;;;4998326;28;20026;-53
2022/08/28 00:46:21;;;;;;;29.10;17.23;;;19.80;99.90;;;;;;5002381;28;20061;-53
2022/08/28 00:48:48;;;;;;;21.25;15.68;;;19.70;99.90;;;;;;5001410;28;20019;-53
2022/08/28 00:54:02;;;;;;;25.08;17.48;;;19.60;99.90;;;;;;5001546;28;20092;-53
2022/08/28 00:56:30;;;;;;;22.83;17.23;;;19.70;99.90;;;;;;5001742;28;20381;-53
2022/08/28 00:58:58;;;;;;;20.55;15.07;;;19.80;99.90;;;;;;5003059;28;20014;-54
2022/08/28 01:01:24;;;;;;;25.25;17.15;;;19.80;99.90;;;;;;5001921;28;20022;-53
2022/08/28 01:03:50;;;;;;;19.42;15.43;;;19.80;99.90;;;;;;5001700;28;20041;-53
2022/08/28 01:06:19;;;;;;;28.50;16.98;;;19.80;99.90;;;;;;5002795;28;20821;-53
2022/08/28 01:08:47;;;;;;;21.85;16.70;;;19.70;99.90;;;;;;5001937;28;20020;-53
2022/08/28 01:11:13;;;;;;;26.45;16.50;;;19.70;99.90;;;;;;5001360;28;20032;-52
2022/08/28 01:13:45;;;;;;;27.05;15.85;;;19.80;99.90;;;;;;4977660;28;20031;-54
2022/08/28 01:16:13;;;;;;;20.77;15.73;;;19.70;99.90;;;;;;4998915;28;20042;-53
2022/08/28 01:18:41;;;;;;;21.45;15.60;;;19.80;99.90;;;;;;4981363;28;20025;-53
2022/08/28 01:21:17;;;;;;;22.88;16.08;;;19.70;99.90;;;;;;4981158;28;20793;-53
2022/08/28 01:24:03;;;;;;;23.27;16.35;;;19.30;99.90;;;;;;4982410;28;20022;-53
2022/08/28 01:26:30;;;;;;;27.90;17.95;;;19.10;99.90;;;;;;4983079;28;20042;-53
2022/08/28 01:28:58;;;;;;;22.90;16.97;;;19.10;99.90;;;;;;4978380;28;20015;-53
2022/08/28 01:31:25;;;;;;;23.98;16.45;;;19.30;99.90;;;;;;4979719;28;20027;-53
2022/08/28 01:33:51;;;;;;;31.17;15.70;;;19.30;99.90;;;;;;4980896;28;20034;-54
2022/08/28 01:36:18;;;;;;;20.92;16.08;;;19.30;99.90;;;;;;4962517;28;20034;-53
2022/08/28 01:38:48;;;;;;;28.20;14.90;;;19.30;99.90;;;;;;4980432;28;20497;-53
2022/08/28 01:41:15;;;;;;;28.38;17.60;;;19.30;99.90;;;;;;4979932;28;20499;-53
2022/08/28 01:43:42;;;;;;;23.05;16.55;;;19.30;99.90;;;;;;4980935;28;20764;-53
2022/08/28 01:46:10;;;;;;;24.90;15.45;;;19.30;99.90;;;;;;4981685;28;20125;-54
2022/08/28 01:48:40;;;;;;;25.10;16.38;;;19.30;99.90;;;;;;4980256;28;20026;-53
2022/08/28 01:51:07;;;;;;;25.70;15.20;;;19.30;99.90;;;;;;4979689;28;20030;-54
2022/08/28 01:53:34;;;;;;;24.65;17.05;;;19.30;99.90;;;;;;4964010;28;20128;-53
2022/08/28 01:56:02;;;;;;;26.85;16.77;;;19.30;99.90;;;;;;4997266;28;20536;-53
2022/08/28 01:58:28;;;;;;;27.80;16.40;;;19.20;99.90;;;;;;5001476;28;20110;-53
2022/08/28 02:00:53;;;;;;;25.55;16.55;;;19.20;99.90;;;;;;4981975;28;20155;-53
2022/08/28 02:03:20;;;;;;;24.10;17.30;;;19.20;99.90;;;;;;4999995;28;20088;-53
2022/08/28 02:05:46;;;;;;;24.80;16.48;;;19.10;99.90;;;;;;4997439;28;20037;-53
2022/08/28 02:08:12;;;;;;;22.95;15.27;;;19.10;99.90;;;;;;5000763;28;20030;-54
2022/08/28 02:10:40;;;;;;;20.80;14.50;;;19.20;99.90;;;;;;5001579;28;20026;-53
2022/08/28 02:13:06;;;;;;;23.88;15.48;;;19.30;99.90;;;;;;4997537;28;20014;-54
2022/08/28 02:15:34;;;;;;;25.40;15.25;;;19.30;99.90;;;;;;4995150;28;20039;-53
2022/08/28 02:18:00;;;;;;;;;;;19.20;99.90;;;;;;4990365;28;20120;-53
2022/08/28 02:20:27;;;;;;;22.05;14.73;;;19.20;99.90;;;;;;4991098;28;19941;-54
2022/08/28 02:22:54;;;;;;;24.10;15.05;;;19.10;99.90;;;;;;4990905;28;20045;-54
2022/08/28 02:25:20;;;;;;;23.25;17.27;;;19.10;99.90;;;;;;4991051;28;20053;-53
2022/08/28 02:27:45;;;;;;;21.15;15.13;;;19.10;99.90;;;;;;4991077;28;20490;-54
2022/08/28 02:30:14;;;;;;;20.25;14.23;;;19.10;99.90;;;;;;4990970;28;20072;-54
2022/08/28 02:32:40;;;;;;;25.10;15.20;;;19.00;99.90;;;;;;4990854;28;20030;-54
2022/08/28 02:35:09;;;;;;;24.05;15.30;;;19.00;99.90;;;;;;4991238;28;20068;-53
2022/08/28 02:37:35;;;;;;;20.88;15.13;;;19.00;99.90;;;;;;4990804;28;20053;-53
2022/08/28 02:40:01;;;;;;;23.90;15.15;;;19.00;99.90;;;;;;4990285;28;20065;-53
2022/08/28 02:42:28;;;;;;;21.27;14.97;;;18.90;99.90;;;;;;4990455;28;20144;-53
2022/08/28 02:44:53;;;;;;;26.48;17.00;;;18.80;99.90;;;;;;4990226;28;20058;-53
2022/08/28 02:47:19;;;;;;;20.50;15.52;;;18.80;99.90;;;;;;4989901;28;20061;-53
2022/08/28 02:49:45;;;;;;;21.45;14.70;;;18.80;99.90;;;;;;4989768;28;20709;-53
2022/08/28 02:52:11;;;;;;;23.58;16.00;;;18.80;99.90;;;;;;4990896;28;20030;-53
2022/08/28 02:54:38;;;;;;;21.92;15.93;;;18.80;99.90;;;;;;4990523;28;20129;-53
2022/08/28 02:57:05;;;;;;;;;;;18.70;99.90;;;;;;4991275;28;20030;-53
2022/08/28 02:59:31;;;;;;;24.08;17.17;;;18.70;99.90;;;;;;4990513;28;20662;-53
2022/08/28 03:01:57;;;;;;;26.23;17.45;;;18.60;99.90;;;;;;4990814;28;20557;-53
2022/08/28 03:04:22;;;;;;;24.70;16.15;;;18.60;99.90;;;;;;4990166;28;20104;-52
2022/08/28 03:06:49;;;;;;;19.38;14.80;;;18.60;99.90;;;;;;4990271;28;20034;-53
2022/08/28 03:09:15;;;;;;;28.93;15.53;;;18.60;99.90;;;;;;4990427;28;20482;-53
2022/08/28 03:11:40;;;;;;;27.17;15.50;;;18.70;99.90;;;;;;4990603;28;20277;-53
2022/08/28 03:14:06;;;;;;;21.67;15.55;;;18.70;99.90;;;;;;4990466;28;20562;-53
2022/08/28 03:16:33;;;;;;;27.45;15.45;;;18.70;99.90;;;;;;4990518;28;20022;-54
2022/08/28 03:19:00;;;;;;;30.40;16.97;;;18.80;99.90;;;;;;4990408;28;20022;-53
2022/08/28 03:21:26;;;;;;;21.40;15.90;;;18.60;99.90;;;;;;4990172;28;20033;-54
2022/08/28 03:23:51;;;;;;;18.83;14.68;;;18.60;99.90;;;;;;4990139;28;20030;-52
2022/08/28 03:26:20;;;;;;;23.55;14.40;;;18.60;99.90;;;;;;4990076;28;20049;-53
2022/08/28 03:28:51;;;;;;;20.73;15.90;;;18.60;99.90;;;;;;4990338;28;20080;-53
2022/08/28 03:31:23;;;;;;;22.48;16.55;;;18.60;99.90;;;;;;4990310;28;20038;-53
2022/08/28 03:33:49;;;;;;;26.65;15.40;;;18.60;99.90;;;;;;4990174;28;20033;-53
2022/08/28 03:36:20;;;;;;;19.85;15.10;;;18.60;99.90;;;;;;4989962;28;20052;-53
2022/08/28 03:38:46;;;;;;;24.63;16.73;;;18.40;99.90;;;;;;4989890;28;20049;-54
2022/08/28 03:41:15;;;;;;;21.70;16.10;;;18.10;99.90;;;;;;4989968;28;20515;-53
2022/08/28 03:43:41;;;;;;;25.73;16.85;;;18.00;99.90;;;;;;4990031;28;20113;-53
2022/08/28 03:46:15;;;;;;;24.58;17.33;;;18.00;99.90;;;;;;4989944;28;20085;-53
2022/08/28 03:48:41;;;;;;;21.15;17.17;;;17.90;99.90;;;;;;4989629;28;20038;-53
2022/08/28 03:51:15;;;;;;;23.08;17.23;;;18.10;99.90;;;;;;4989349;28;20034;-54
2022/08/28 03:53:41;;;;;;;28.17;19.58;;;18.30;99.90;;;;;;4989126;28;20034;-53
2022/08/28 03:56:13;;;;;;;27.58;17.13;;;18.40;99.90;;;;;;4989130;28;20070;-54
2022/08/28 03:58:39;;;;;;;22.45;16.88;;;18.50;99.90;;;;;;4989791;28;20041;-53
2022/08/28 04:01:06;;;;;;;23.95;18.75;;;18.50;99.90;;;;;;4989763;28;20022;-53
2022/08/28 04:03:32;;;;;;;27.08;19.63;;;18.50;99.90;;;;;;4989482;28;20030;-53
2022/08/28 04:05:57;;;;;;;24.00;19.10;;;18.40;99.90;;;;;;4989336;28;20089;-53
2022/08/28 04:08:23;;;;;;;29.70;20.95;;;18.40;99.90;;;;;;4989712;28;20458;-53
2022/08/28 04:10:50;;;;;;;33.97;21.77;;;18.30;99.90;;;;;;4989440;28;20022;-53
2022/08/28 04:13:18;;;;;;;30.70;20.50;;;18.30;99.90;;;;;;4989579;28;20041;-53
2022/08/28 04:15:44;;;;;;;30.13;22.60;;;18.30;99.90;;;;;;4989617;28;20394;-54
2022/08/28 04:18:11;;;;;;;31.48;21.73;;;18.30;99.90;;;;;;4989243;28;20030;-54
2022/08/28 04:20:37;;;;;;;35.78;24.23;;;18.30;99.90;;;;;;4989130;28;20034;-54
2022/08/28 04:23:04;;;;;;;34.58;23.90;;;18.30;99.90;;;;;;4989763;28;20038;-54
2022/08/28 04:25:30;;;;;;;;;;;18.40;99.90;;;;;;4990037;28;20042;-53
2022/08/28 04:27:56;;;;;;;34.03;22.95;;;18.40;99.90;;;;;;4989486;28;19909;-54
2022/08/28 04:30:22;;;;;;;31.63;23.23;;;18.50;99.90;;;;;;4989595;28;20038;-53
2022/08/28 04:32:48;;;;;;;44.17;23.50;;;18.50;99.90;;;;;;4989652;28;20413;-54
2022/08/28 04:35:15;;;;;;;34.53;23.42;;;18.60;99.90;;;;;;4989793;28;20768;-53
2022/08/28 04:37:42;;;;;;;31.95;22.83;;;18.60;99.90;;;;;;4990338;28;20048;-53
2022/08/28 04:40:10;;;;;;;33.20;23.80;;;18.70;99.90;;;;;;4990212;28;20034;-53
2022/08/28 04:42:39;;;;;;;30.67;21.83;;;18.70;99.90;;;;;;4990017;28;20092;-54
2022/08/28 04:45:06;;;;;;;32.20;24.58;;;18.80;99.90;;;;;;4989893;28;20037;-53
2022/08/28 04:47:35;;;;;;;30.25;22.73;;;18.80;99.90;;;;;;4989758;28;20112;-53
2022/08/28 04:50:02;;;;;;;38.13;25.15;;;18.90;99.90;;;;;;4989609;28;20038;-53
2022/08/28 04:52:28;;;;;;;;;;;18.90;99.90;;;;;;4990270;28;20030;-53
2022/08/28 04:54:54;;;;;;;30.60;22.08;;;18.90;99.90;;;;;;4990131;28;19968;-54
2022/08/28 04:57:20;;;;;;;33.80;24.40;;;18.90;99.90;;;;;;4989919;28;20466;-56
2022/08/28 04:59:46;;;;;;;34.05;24.33;;;18.90;99.90;;;;;;4972385;28;20027;-53
2022/08/28 05:02:12;;;;;;;35.75;23.95;;;18.90;99.90;;;;;;4989723;28;20034;-53
2022/08/28 05:04:37;;;;;;;31.90;23.00;;;18.90;99.90;;;;;;4992954;28;20457;-53
2022/08/28 05:07:03;;;;;;;37.80;23.95;;;18.90;99.90;;;;;;4993346;28;20047;-53
2022/08/28 05:09:30;;;;;;;29.83;21.95;;;18.90;99.90;;;;;;4993465;28;20011;-53
2022/08/28 05:11:59;;;;;;;34.13;23.45;;;18.90;99.90;;;;;;4993453;28;20027;-54
2022/08/28 05:14:26;;;;;;;36.15;25.23;;;18.90;99.90;;;;;;4993196;28;20728;-53
2022/08/28 05:16:52;;;;;;;31.73;22.50;;;18.90;99.90;;;;;;4993500;28;20034;-53
2022/08/28 05:19:19;;;;;;;29.25;21.15;;;18.90;99.90;;;;;;4975574;28;20390;-53
2022/08/28 05:21:45;;;;;;;36.05;23.23;;;18.90;99.90;;;;;;4993341;28;20075;-54
2022/08/28 05:24:12;;;;;;;34.90;23.10;;;18.90;99.90;;;;;;4993183;28;20026;-54
2022/08/28 05:26:38;;;;;;;29.67;21.30;;;18.90;99.90;;;;;;4992982;28;20042;-53
2022/08/28 05:29:05;;;;;;;31.40;23.70;;;18.90;99.90;;;;;;4975551;28;20081;-54
2022/08/28 05:31:32;;;;;;;28.88;22.73;;;19.00;99.90;;;;;;4992868;28;20033;-53
2022/08/28 05:33:59;;;;;;;38.70;24.42;;;19.00;99.90;;;;;;4992849;28;20093;-54
2022/08/28 05:36:27;;;;;;;35.15;23.95;;;19.00;99.90;;;;;;4992736;28;20573;-53
2022/08/28 05:38:57;;;;;;;37.80;23.95;;;19.10;99.90;;;;;;4992819;28;20040;-53
2022/08/28 05:41:29;;;;;;;37.00;24.90;;;19.10;99.90;;;;;;4992703;28;20042;-54
2022/08/28 05:43:58;;;;;;;40.10;25.73;;;19.00;99.90;;;;;;4992700;28;20030;-53
2022/08/28 05:46:26;;;;;;;39.88;26.65;;;19.10;99.90;;;;;;4992993;28;20426;-53
2022/08/28 05:48:53;;;;;;;49.30;28.85;;;19.10;99.90;;;;;;4992801;28;20068;-53
2022/08/28 05:51:21;;;;;;;59.67;34.57;;;19.20;99.90;;;;;;4992600;28;20060;-54
2022/08/28 05:53:48;;;;;;;60.60;33.47;;;19.20;99.90;;;;;;4991104;28;20133;-54
2022/08/28 05:56:17;;;;;;;70.45;36.35;;;19.20;99.90;;;;;;4992658;28;20029;-54
2022/08/28 05:58:43;;;;;;;80.35;39.15;;;19.20;99.90;;;;;;4992960;28;20023;-54
2022/08/28 06:01:08;;;;;;;73.82;40.45;;;19.20;99.90;;;;;;4992579;28;20138;-54
2022/08/28 06:03:36;;;;;;;67.70;37.88;;;19.30;99.90;;;;;;4992594;28;20026;-53
2022/08/28 06:06:03;;;;;;;70.40;37.55;;;19.30;99.90;;;;;;4992194;28;20475;-53
2022/08/28 06:08:30;;;;;;;67.00;37.85;;;19.40;99.90;;;;;;4992262;28;20027;-54
2022/08/28 06:10:56;;;;;;;64.22;37.78;;;19.50;99.90;;;;;;4992231;28;20061;-53
2022/08/28 06:13:22;;;;;;;60.97;35.13;;;19.50;99.90;;;;;;4992176;28;20462;-53
2022/08/28 06:15:48;;;;;;;71.38;36.35;;;19.60;99.90;;;;;;4991242;28;20027;-55
2022/08/28 06:18:15;;;;;;;60.75;37.88;;;19.70;99.90;;;;;;4992188;28;20442;-55
2022/08/28 06:20:43;;;;;;;65.07;36.05;;;19.70;99.90;;;;;;4992044;28;20032;-55
2022/08/28 06:23:10;;;;;;;65.53;35.20;;;19.80;99.90;;;;;;4993857;28;20481;-55
2022/08/28 06:25:38;;;;;;;59.03;36.63;;;19.80;99.90;;;;;;4999533;28;20112;-55
2022/08/28 06:28:05;;;;;;;58.25;35.00;;;19.90;99.90;;;;;;5000895;28;20038;-55
2022/08/28 06:30:30;;;;;;;59.45;35.58;;;19.90;99.90;;;;;;5001030;28;20065;-55
2022/08/28 06:32:56;;;;;;;57.20;36.45;;;20.10;99.90;;;;;;4998747;28;20556;-55
2022/08/28 06:35:22;;;;;;;62.60;37.95;;;20.10;99.90;;;;;;4999885;28;20022;-54
2022/08/28 06:37:48;;;;;;;62.70;37.83;;;20.20;99.90;;;;;;5000005;28;20092;-54
2022/08/28 06:40:14;;;;;;;61.13;36.95;;;20.00;99.90;;;;;;4998557;28;20113;-55
2022/08/28 06:42:40;;;;;;;64.47;38.37;;;20.10;99.90;;;;;;4983162;28;20484;-55
2022/08/28 06:45:09;;;;;;;60.15;36.63;;;20.10;99.90;;;;;;5000402;28;20034;-55
2022/08/28 06:47:35;;;;;;;67.25;40.35;;;20.10;99.90;;;;;;4982209;28;20026;-53
2022/08/28 06:50:00;;;;;;;55.67;37.53;;;20.30;99.90;;;;;;5000529;28;20034;-53
2022/08/28 06:52:26;;;;;;;61.88;38.75;;;20.30;99.90;;;;;;4996636;28;20041;-53
2022/08/28 06:54:52;;;;;;;62.22;38.47;;;20.40;99.90;;;;;;5005184;28;20050;-53
2022/08/28 06:57:17;;;;;;;59.83;38.15;;;20.50;99.90;;;;;;5002845;28;20038;-55
2022/08/28 06:59:43;;;;;;;62.08;38.28;;;20.50;99.90;;;;;;5001417;28;20026;-54
2022/08/28 07:02:10;;;;;;;53.75;34.45;;;20.60;99.90;;;;;;5000744;28;20046;-54
2022/08/28 07:04:36;;;;;;;56.63;36.53;;;20.60;99.90;;;;;;5001642;28;20029;-54
2022/08/28 07:07:02;;;;;;;55.13;36.57;;;20.70;99.90;;;;;;4992489;28;20042;-54
2022/08/28 07:09:28;;;;;;;57.22;36.15;;;20.80;99.90;;;;;;4989292;28;20057;-54
2022/08/28 07:11:53;;;;;;;50.13;35.25;;;20.90;99.90;;;;;;4989111;28;20137;-53
2022/08/28 07:14:19;;;;;;;61.83;38.78;;;21.10;99.90;;;;;;4988722;28;20029;-53
2022/08/28 07:16:45;;;;;;;55.45;36.58;;;21.10;99.90;;;;;;4988811;28;20018;-53
2022/08/28 07:19:11;;;;;;;64.28;36.60;;;21.20;99.90;;;;;;4988756;28;20105;-52
2022/08/28 07:21:40;;;;;;;52.25;35.65;;;21.20;99.90;;;;;;4988501;28;20026;-52
2022/08/28 07:24:09;;;;;;;53.47;35.25;;;21.20;99.90;;;;;;4992040;28;20022;-53
2022/08/28 07:26:36;;;;;;;57.60;38.35;;;21.30;99.90;;;;;;4993395;28;20473;-53
2022/08/28 07:29:03;;;;;;;61.67;37.63;;;21.50;99.90;;;;;;4992755;28;20088;-52
2022/08/28 07:31:29;;;;;;;59.65;35.28;;;21.60;99.90;;;;;;4997444;28;20030;-51
2022/08/28 07:33:55;;;;;;;52.42;34.60;;;21.80;99.90;;;;;;4991081;28;20026;-51
2022/08/28 07:36:23;;;;;;;59.88;34.50;;;21.80;99.90;;;;;;4992875;28;20030;-52
2022/08/28 07:38:49;;;;;;;52.17;34.53;;;22.00;99.90;;;;;;4993500;28;20085;-53
2022/08/28 07:41:18;;;;;;;51.58;34.00;;;22.00;99.90;;;;;;4996554;28;20034;-52
2022/08/28 07:46:29;;;;;;;56.50;35.05;;;22.20;99.90;;;;;;4996472;28;20064;-52
2022/08/28 07:48:57;;;;;;;49.67;34.92;;;22.20;99.90;;;;;;4978892;28;20018;-52
2022/08/28 07:51:24;;;;;;;49.53;32.13;;;22.10;99.90;;;;;;4996764;28;20037;-51
2022/08/28 07:53:51;;;;;;;48.63;33.88;;;22.10;99.90;;;;;;4996002;28;20042;-52
2022/08/28 07:56:17;;;;;;;45.58;32.28;;;21.90;99.90;;;;;;4988829;28;20038;-51
2022/08/28 07:58:42;;;;;;;50.42;33.80;;;22.00;99.90;;;;;;4996342;28;20037;-52
2022/08/28 08:01:08;;;;;;;51.38;33.85;;;21.90;99.90;;;;;;5000421;28;20032;-52
2022/08/28 08:03:34;;;;;;;52.25;33.30;;;21.90;99.90;;;;;;4997868;28;20466;-53
2022/08/28 08:06:02;;;;;;;51.67;34.10;;;22.00;99.90;;;;;;5000265;28;20389;-55
2022/08/28 08:08:29;;;;;;;48.92;32.47;;;22.10;99.90;;;;;;5000027;28;20030;-53
2022/08/28 08:11:04;;;;;;;;;;;22.20;99.90;;;;;;5001562;28;20029;-53
2022/08/28 08:13:31;;;;;;;45.95;29.73;;;22.40;99.90;;;;;;4999437;28;19909;-53
2022/08/28 08:16:05;;;;;;;48.55;32.85;;;22.50;99.90;;;;;;4979836;28;20030;-53
2022/08/28 08:18:32;;;;;;;46.13;29.67;;;22.80;99.90;;;;;;4988534;28;20042;-53
2022/08/28 08:20:58;;;;;;;46.85;28.60;;;22.90;99.90;;;;;;4987636;28;20520;-53
2022/08/28 08:23:24;;;;;;;38.92;25.13;;;23.00;99.90;;;;;;4989046;28;20088;-53
2022/08/28 08:25:56;;;;;;;39.17;25.95;;;23.20;99.90;;;;;;4988959;28;20090;-54
2022/08/28 08:28:23;;;;;;;37.10;25.95;;;23.50;99.90;;;;;;4987995;28;20493;-52
2022/08/28 08:30:49;;;;;;;42.30;25.67;;;23.60;99.90;;;;;;4988780;28;20057;-52
2022/08/28 08:33:14;;;;;;;40.67;26.08;;;23.70;99.90;;;;;;4988759;28;20608;-52
2022/08/28 08:35:40;;;;;;;33.58;21.92;;;23.70;99.90;;;;;;4987745;28;20023;-54
2022/08/28 08:38:06;;;;;;;31.58;22.20;;;23.90;99.90;;;;;;4988912;28;20041;-53
2022/08/28 08:40:33;;;;;;;30.95;21.20;;;24.10;99.90;;;;;;4991967;28;20184;-53
2022/08/28 08:43:00;;;;;;;28.98;20.45;;;24.30;99.90;;;;;;4991539;28;20037;-53
2022/08/28 08:45:28;;;;;;;30.15;19.90;;;24.40;99.90;;;;;;4992474;28;20038;-53
2022/08/28 08:47:54;;;;;;;27.42;19.80;;;24.40;99.90;;;;;;4992918;28;20363;-54
2022/08/28 08:50:31;;;;;;;33.00;18.77;;;24.30;99.90;;;;;;4992728;28;20019;-53
2022/08/28 08:53:53;;;;;;;24.17;16.75;;;24.50;99.90;;;;;;5009098;28;20034;-53
2022/08/28 08:56:20;;;;;;;22.33;16.80;;;24.60;99.90;;;;;;4934623;29;20134;-53
2022/08/28 08:58:51;;;;;;;22.75;15.95;;;24.60;99.90;;;;;;4930911;29;20035;-52
2022/08/28 09:01:32;;;;;;;22.58;15.50;;;24.70;99.90;;;;;;4944734;28;20809;-53
2022/08/28 09:04:01;;;;;;;31.13;16.58;;;24.80;99.90;;;;;;4989961;28;20482;-54
2022/08/28 09:06:55;;;;;;;24.90;17.33;;;25.00;99.90;;;;;;4998082;28;20085;-54
2022/08/28 09:09:39;;;;;;;24.88;16.75;;;25.00;99.90;;;;;;4992982;28;20029;-53
2022/08/28 09:12:14;;;;;;;35.28;19.35;;;25.10;99.90;;;;;;4992967;28;20023;-53
2022/08/28 09:15:07;;;;;;;26.85;19.48;;;25.20;99.90;;;;;;5003616;28;20378;-53
2022/08/28 09:17:36;;;;;;;24.88;18.33;;;25.50;99.90;;;;;;4994084;28;20032;-53
2022/08/28 09:20:09;;;;;;;29.60;18.05;;;25.60;99.90;;;;;;5006876;28;20440;-53
2022/08/28 09:22:42;;;;;;;26.15;17.80;;;25.90;99.90;;;;;;5006953;28;20054;-52
2022/08/28 09:25:09;;;;;;;21.60;16.23;;;26.20;99.90;;;;;;4992120;28;20038;-52
2022/08/28 09:27:42;;;;;;;;;;;26.10;99.90;;;;;;4994396;28;20053;-53
2022/08/28 09:30:10;;;;;;;26.13;18.30;;;26.10;99.90;;;;;;4973348;28;19920;-53
2022/08/28 09:32:43;;;;;;;26.10;17.77;;;26.20;99.90;;;;;;5001386;28;20086;-53
2022/08/28 09:35:27;;;;;;;25.20;17.45;;;26.30;99.90;;;;;;4992362;28;20133;-53
2022/08/28 09:37:54;;;;;;;22.98;16.23;;;26.30;99.90;;;;;;5004891;28;20551;-53
2022/08/28 09:43:25;;;;;;;25.98;17.67;;;26.50;99.90;;;;;;5006485;28;20109;-53
2022/08/28 09:43:26;;;;;;;22.17;14.57;;;26.50;99.90;;;;;;4999474;28;20040;-53
2022/08/28 09:46:05;;;;;;;20.00;14.82;;;26.90;99.90;;;;;;4983674;28;20052;-53
2022/08/28 09:48:42;;;;;;;19.45;15.10;;;27.00;99.90;;;;;;4982947;28;20045;-53
2022/08/28 09:51:20;;;;;;;21.13;16.38;;;27.30;99.90;;;;;;4997420;28;20041;-52
2022/08/28 09:53:52;;;;;;;20.75;15.05;;;27.10;99.90;;;;;;5000704;28;20028;-53
2022/08/28 09:56:20;;;;;;;19.95;15.35;;;26.80;99.90;;;;;;4997533;28;20138;-53
2022/08/28 09:58:53;;;;;;;25.48;16.65;;;26.50;99.90;;;;;;4997376;28;20036;-53
2022/08/28 10:01:41;;;;;;;23.98;16.92;;;26.30;99.90;;;;;;4997214;28;20481;-53
2022/08/28 10:04:14;;;;;;;19.55;15.90;;;26.00;99.90;;;;;;4991323;28;20815;-53
2022/08/28 10:06:43;;;;;;;24.52;16.05;;;26.10;99.90;;;;;;4989208;28;20100;-53
2022/08/28 10:09:33;;;;;;;26.02;18.02;;;26.30;99.90;;;;;;4989372;28;20062;-55
2022/08/28 10:12:21;;;;;;;23.20;17.45;;;26.30;99.90;;;;;;4982479;28;20029;-53
2022/08/28 10:14:53;;;;;;;26.52;19.00;;;25.10;99.90;;;;;;5000917;28;20030;-53
2022/08/28 10:17:30;;;;;;;24.13;19.25;;;25.30;99.90;;;;;;5008982;28;20053;-53
2022/08/28 10:20:00;;;;;;;27.48;21.33;;;25.10;99.90;;;;;;5009199;28;20025;-53
2022/08/28 10:22:50;;;;;;;26.55;19.77;;;25.00;99.90;;;;;;5008643;28;20112;-53
2022/08/28 10:25:16;;;;;;;27.48;19.80;;;25.40;99.90;;;;;;5008557;28;20028;-53
2022/08/28 10:27:44;;;;;;;26.42;20.17;;;25.40;99.90;;;;;;5008827;28;20033;-53
2022/08/28 10:30:13;;;;;;;26.77;19.17;;;25.20;99.90;;;;;;5008459;28;20022;-53
2022/08/28 10:32:58;;;;;;;32.38;25.08;;;25.40;99.90;;;;;;5008367;28;20026;-53
2022/08/28 10:35:50;;;;;;;33.40;26.02;;;25.50;99.90;;;;;;5008526;28;20149;-52
2022/08/28 10:38:40;;;;;;;30.30;24.10;;;25.50;99.90;;;;;;5008438;28;20145;-53
2022/08/28 10:41:31;;;;;;;37.50;26.35;;;25.70;99.90;;;;;;5008905;28;20080;-52
2022/08/28 10:44:01;;;;;;;33.13;25.63;;;25.00;99.90;;;;;;5008424;28;20026;-52
2022/08/28 10:46:41;;;;;;;33.22;25.02;;;25.20;99.90;;;;;;5008145;28;20038;-52
2022/08/28 10:49:25;;;;;;;28.00;22.17;;;25.40;99.90;;;;;;5008215;28;20037;-52
2022/08/28 10:51:58;;;;;;;32.72;24.00;;;25.40;99.90;;;;;;5003474;28;20108;-52
2022/08/28 10:54:47;;;;;;;34.30;22.13;;;25.60;99.90;;;;;;5007185;28;20050;-52
2022/08/28 10:57:33;;;;;;;31.13;24.98;;;25.70;99.90;;;;;;5007786;28;20028;-52
2022/08/28 11:00:11;;;;;;;31.17;23.70;;;25.90;99.90;;;;;;5008303;28;20034;-53
2022/08/28 11:02:37;;;;;;;;;;;25.90;99.90;;;;;;5008282;28;20449;-53
2022/08/28 11:05:04;;;;;;;30.85;22.20;;;25.70;99.90;;;;;;5008068;28;20361;-52
2022/08/28 11:07:36;;;;;;;31.25;22.08;;;26.10;99.90;;;;;;5003583;28;20064;-53
2022/08/28 11:10:39;;;;;;;28.90;22.42;;;26.40;99.90;;;;;;4998349;28;20031;-53
2022/08/28 11:13:08;;;;;;;35.67;24.67;;;26.50;99.90;;;;;;4998544;28;20100;-53
2022/08/28 11:15:35;;;;;;;29.02;23.52;;;26.60;99.90;;;;;;4993646;28;20100;-53
2022/08/28 11:18:09;;;;;;;31.80;21.58;;;26.10;99.90;;;;;;4990827;28;20030;-54
2022/08/28 11:20:38;;;;;;;28.75;21.88;;;26.20;99.90;;;;;;4994465;28;20033;-53
2022/08/28 11:23:30;;;;;;;26.65;20.33;;;26.20;99.90;;;;;;4998478;28;20069;-53
2022/08/28 11:26:01;;;;;;;35.33;21.80;;;26.30;99.90;;;;;;4999523;28;20025;-53
2022/08/28 11:28:41;;;;;;;27.08;21.45;;;26.40;99.90;;;;;;4998771;28;20037;-52
2022/08/28 11:31:08;;;;;;;29.42;21.45;;;26.40;99.90;;;;;;4997854;28;20022;-53
2022/08/28 11:33:36;;;;;;;24.20;19.58;;;26.30;99.90;;;;;;4997078;28;20057;-53
2022/08/28 11:36:07;;;;;;;25.20;18.92;;;26.60;99.90;;;;;;4998576;28;20030;-52
2022/08/28 11:38:42;;;;;;;23.75;17.83;;;26.80;99.90;;;;;;5009034;28;20033;-53
2022/08/28 11:41:19;;;;;;;20.40;16.98;;;27.00;99.90;;;;;;5010216;28;20049;-53
2022/08/28 11:43:47;;;;;;;25.42;19.02;;;27.20;99.90;;;;;;5009902;28;20112;-53
2022/08/28 11:46:23;;;;;;;21.52;16.90;;;27.10;99.90;;;;;;5009707;28;20041;-53
2022/08/28 11:48:56;;;;;;;22.77;17.27;;;27.20;99.90;;;;;;5006575;28;20065;-53
2022/08/28 11:51:41;;;;;;;27.70;16.02;;;27.60;99.90;;;;;;4997637;28;20277;-52
2022/08/28 11:54:22;;;;;;;21.45;17.35;;;27.90;99.90;;;;;;5009553;28;20136;-52
2022/08/28 11:57:13;;;;;;;23.08;15.70;;;28.30;99.90;;;;;;5009600;28;20036;-53
2022/08/28 12:00:29;;;;;;;19.77;15.60;;;28.50;99.90;;;;;;5006299;28;20108;-54
2022/08/28 12:03:09;;;;;;;20.35;15.65;;;28.80;99.90;;;;;;4972607;28;20039;-54
2022/08/28 12:05:40;;;;;;;22.95;17.60;;;28.60;99.90;;;;;;5001637;28;20389;-53
2022/08/28 12:08:09;;;;;;;21.80;15.98;;;28.70;99.90;;;;;;4988756;28;20038;-51
2022/08/28 12:10:38;;;;;;;21.92;16.63;;;28.40;99.90;;;;;;4988778;28;20437;-54
2022/08/28 12:13:06;;;;;;;21.92;17.05;;;28.00;99.90;;;;;;4970401;28;20065;-54
2022/08/28 12:15:32;;;;;;;26.88;19.02;;;27.60;99.90;;;;;;4988238;28;20041;-54
2022/08/28 12:18:13;;;;;;;22.77;17.10;;;27.50;99.90;;;;;;4988864;28;20030;-53
2022/08/28 12:20:48;;;;;;;23.75;16.20;;;27.30;99.90;;;;;;4988433;28;20437;-52
2022/08/28 12:23:37;;;;;;;22.45;17.02;;;27.10;99.90;;;;;;4988265;28;20494;-52
2022/08/28 12:26:04;;;;;;;;;;;26.90;99.90;;;;;;4992826;28;20548;-53
2022/08/28 12:29:26;;;;;;;23.90;16.73;;;26.80;99.90;;;;;;4980041;28;19920;-51
2022/08/28 12:32:11;;;;;;;20.38;16.00;;;26.60;99.90;;;;;;4936808;29;20031;-52
2022/08/28 12:34:58;;;;;;;21.70;16.30;;;26.30;99.90;;;;;;4992292;28;20045;-51
2022/08/28 12:37:35;;;;;;;23.63;18.60;;;26.30;99.90;;;;;;4997866;28;20117;-52
2022/08/28 12:40:14;;;;;;;26.80;18.00;;;26.20;99.90;;;;;;4995354;28;20029;-52
2022/08/28 12:42:47;;;;;;;25.10;17.92;;;26.10;99.90;;;;;;4992412;28;20082;-51
2022/08/28 12:45:21;;;;;;;27.23;18.60;;;26.00;99.90;;;;;;4988153;28;20030;-51
2022/08/28 12:47:49;;;;;;;26.73;18.38;;;25.80;99.90;;;;;;4988305;28;20042;-52
2022/08/28 12:50:35;;;;;;;21.00;17.80;;;25.80;99.90;;;;;;4988645;28;20106;-52
2022/08/28 12:53:10;;;;;;;30.15;20.30;;;25.50;99.90;;;;;;4987757;28;20386;-52